Time;durP1;ratioP1;P1;durP2;ratioP2;P2;SDS_P1;SDS_P2;PMS_P1;PMS_P2;Temp;Humidity;BMP_temperature;BMP_pressure;BME280_temperature;BME280_humidity;BME280_pressure;Samples;Min_cycle;Max_cycle;Signal;HPM_P1;HPM_P2
2021/03/04 00:00:43;;;;;;;15.20;4.45;;;;;;;12.83;62.85;101965.50;5032564;28;20053;-66
2021/03/04 00:03:10;;;;;;;13.30;3.70;;;;;;;12.89;62.64;101959.44;5014354;28;20077;-66
2021/03/04 00:05:39;;;;;;;8.95;3.75;;;;;;;12.94;62.97;101958.69;5032912;28;20041;-66
2021/03/04 00:08:07;;;;;;;14.15;5.05;;;;;;;12.92;63.08;101956.88;5031770;28;20426;-66
2021/03/04 00:10:34;;;;;;;14.85;6.07;;;;;;;12.91;63.35;101957.75;5013419;28;20034;-66
2021/03/04 00:13:02;;;;;;;12.05;4.15;;;;;;;12.88;63.21;101962.94;5020535;28;20041;-67
2021/03/04 00:15:31;;;;;;;13.73;4.20;;;;;;;12.90;63.45;101950.63;5032608;28;20111;-66
2021/03/04 00:17:58;;;;;;;15.10;4.78;;;;;;;12.95;62.88;101962.25;5031339;28;20057;-66
2021/03/04 00:20:28;;;;;;;16.30;4.05;;;;;;;12.97;62.77;101950.84;5032459;28;20670;-66
2021/03/04 00:22:57;;;;;;;15.88;4.22;;;;;;;12.98;62.29;101955.28;5014465;28;20078;-66
2021/03/04 00:25:27;;;;;;;10.68;3.38;;;;;;;12.96;61.98;101949.03;5032496;28;20433;-66
2021/03/04 00:27:54;;;;;;;12.30;3.72;;;;;;;12.92;61.71;101941.88;5031791;28;20040;-66
2021/03/04 00:30:23;;;;;;;11.77;3.60;;;;;;;12.93;61.48;101956.03;5031132;28;20045;-66
2021/03/04 00:32:50;;;;;;;13.50;4.32;;;;;;;12.90;61.19;101951.53;5032340;28;20033;-66
2021/03/04 00:35:17;;;;;;;8.57;3.03;;;;;;;12.90;61.34;101954.19;5031396;28;20091;-66
2021/03/04 00:37:45;;;;;;;11.20;4.55;;;;;;;12.88;61.24;101955.00;5032067;28;20124;-66
2021/03/04 00:40:15;;;;;;;15.52;4.88;;;;;;;12.92;61.16;101957.78;5031361;28;20398;-66
2021/03/04 00:42:43;;;;;;;12.93;3.92;;;;;;;12.93;60.72;101956.91;5032184;28;20057;-66
2021/03/04 00:45:12;;;;;;;9.90;3.10;;;;;;;13.00;61.00;101953.53;5031681;28;20042;-66
2021/03/04 00:47:40;;;;;;;8.15;3.50;;;;;;;12.94;60.53;101950.75;5031828;28;20402;-66
2021/03/04 00:50:08;;;;;;;8.65;3.28;;;;;;;12.87;60.38;101940.84;5030404;28;20037;-66
2021/03/04 00:52:36;;;;;;;12.30;3.67;;;;;;;12.84;60.01;101942.53;5031919;28;20037;-66
2021/03/04 00:55:04;;;;;;;11.75;3.38;;;;;;;12.78;60.05;101943.28;5031000;28;20068;-66
2021/03/04 00:57:33;;;;;;;10.60;2.90;;;;;;;12.75;60.05;101937.88;5031460;28;20042;-66
2021/03/04 01:00:00;;;;;;;8.75;2.85;;;;;;;12.73;59.68;101929.03;5031346;28;20232;-67
2021/03/04 01:02:27;;;;;;;7.95;2.60;;;;;;;12.71;59.80;101931.63;5031769;28;20041;-66
2021/03/04 01:04:55;;;;;;;10.32;3.05;;;;;;;12.75;59.43;101925.53;5031124;28;20620;-67
2021/03/04 01:07:21;;;;;;;10.38;3.58;;;;;;;12.77;59.49;101936.19;5031127;28;20034;-66
2021/03/04 01:09:49;;;;;;;10.68;3.58;;;;;;;12.82;59.18;101928.34;5031599;28;20049;-66
2021/03/04 01:12:16;;;;;;;12.50;3.50;;;;;;;12.84;59.14;101927.53;5031250;28;20053;-66
2021/03/04 01:14:44;;;;;;;12.75;3.10;;;;;;;12.83;58.93;101919.53;5031438;28;20064;-66
2021/03/04 01:17:14;;;;;;;10.57;4.25;;;;;;;12.77;59.17;101912.34;5030453;28;20521;-65
2021/03/04 01:19:41;;;;;;;13.30;3.92;;;;;;;12.74;58.97;101918.44;5030777;28;20048;-66
2021/03/04 01:22:08;;;;;;;8.50;2.83;;;;;;;12.71;59.44;101921.03;5030526;28;20034;-66
2021/03/04 01:24:36;;;;;;;12.55;3.10;;;;;;;12.69;59.27;101917.44;5031541;28;20026;-66
2021/03/04 01:27:03;;;;;;;10.30;3.60;;;;;;;12.65;59.20;101922.63;5030974;28;20108;-67
2021/03/04 01:29:30;;;;;;;10.35;3.13;;;;;;;12.60;59.37;101927.78;5030899;28;20061;-66
2021/03/04 01:31:59;;;;;;;10.07;3.10;;;;;;;12.60;59.24;101933.09;5030202;28;20060;-66
2021/03/04 01:34:26;;;;;;;10.82;4.15;;;;;;;12.58;59.40;101933.91;5031158;28;20045;-66
2021/03/04 01:36:53;;;;;;;12.23;3.65;;;;;;;12.59;59.05;101923.38;5013566;28;20167;-66
2021/03/04 01:39:20;;;;;;;11.85;3.20;;;;;;;12.58;59.42;101929.53;5030287;28;20502;-66
2021/03/04 01:41:48;;;;;;;8.35;2.97;;;;;;;12.59;59.26;101926.03;5030348;28;20042;-66
2021/03/04 01:44:15;;;;;;;12.40;2.92;;;;;;;12.61;59.34;101912.78;5029974;28;20053;-66
2021/03/04 01:46:42;;;;;;;9.35;3.60;;;;;;;12.63;58.90;101906.69;5030962;28;20079;-66
2021/03/04 01:49:11;;;;;;;8.70;3.17;;;;;;;12.69;58.60;101900.63;5030738;28;20050;-66
2021/03/04 01:51:38;;;;;;;6.45;2.63;;;;;;;12.64;58.54;101903.19;5030811;28;20072;-66
2021/03/04 01:54:07;;;;;;;9.32;3.08;;;;;;;12.66;58.95;101904.13;5029809;28;20527;-66
2021/03/04 01:56:34;;;;;;;8.38;3.30;;;;;;;12.65;58.85;101912.03;5030483;28;20038;-66
2021/03/04 01:59:02;;;;;;;8.63;2.75;;;;;;;12.63;58.99;101917.28;5012458;28;20300;-67
2021/03/04 02:01:29;;;;;;;10.90;2.90;;;;;;;12.61;58.90;101916.34;5030431;28;20132;-66
2021/03/04 02:03:56;;;;;;;14.00;2.92;;;;;;;12.53;59.09;101909.97;5029788;28;20049;-66
2021/03/04 02:06:35;;;;;;;12.48;2.80;;;;;;;12.52;58.79;101909.94;5030468;28;20045;-66
2021/03/04 02:09:05;;;;;;;8.18;2.97;;;;;;;12.53;58.74;101904.69;5029808;28;20466;-67
2021/03/04 02:11:37;;;;;;;7.60;2.75;;;;;;;12.56;58.09;101909.13;5030734;28;20510;-66
2021/03/04 02:14:09;;;;;;;6.68;2.38;;;;;;;12.59;58.29;101904.84;5029593;28;20502;-67
2021/03/04 02:16:40;;;;;;;11.35;3.65;;;;;;;12.59;58.29;101907.47;5029978;28;20033;-66
2021/03/04 02:19:20;;;;;;;11.25;3.10;;;;;;;12.58;59.17;101907.44;5029758;28;20038;-66
2021/03/04 02:22:02;;;;;;;9.00;3.45;;;;;;;12.52;59.26;101907.28;5030552;28;20120;-66
2021/03/04 02:24:41;;;;;;;7.60;2.97;;;;;;;12.44;59.97;101909.72;5029795;28;20116;-66
2021/03/04 02:27:11;;;;;;;7.07;3.15;;;;;;;12.47;59.65;101899.19;5029752;28;20034;-66
2021/03/04 02:29:44;;;;;;;13.35;4.28;;;;;;;12.54;59.55;101906.44;5012497;28;20494;-66
2021/03/04 02:32:12;;;;;;;10.98;4.22;;;;;;;12.51;59.71;101906.38;5029655;28;20041;-66
2021/03/04 02:34:45;;;;;;;12.20;3.95;;;;;;;12.53;60.07;101909.97;5030022;28;20064;-66
2021/03/04 02:37:17;;;;;;;6.40;3.13;;;;;;;12.52;60.20;101905.53;5028835;28;20092;-66
2021/03/04 02:39:46;;;;;;;8.98;3.67;;;;;;;12.51;59.75;101909.03;5012499;28;20041;-66
2021/03/04 02:42:19;;;;;;;8.00;3.15;;;;;;;12.52;60.23;101910.81;5029388;28;20040;-66
2021/03/04 02:44:48;;;;;;;7.80;3.40;;;;;;;12.51;60.21;101911.69;5030140;28;20041;-67
2021/03/04 02:47:18;;;;;;;10.98;3.53;;;;;;;12.48;60.40;101902.72;5029672;28;20041;-65
2021/03/04 02:49:46;;;;;;;10.68;3.03;;;;;;;12.47;60.52;101907.13;5029256;28;20068;-65
2021/03/04 02:52:13;;;;;;;7.75;2.47;;;;;;;12.49;60.29;101912.47;5029104;28;20053;-65
2021/03/04 02:54:42;;;;;;;7.22;3.15;;;;;;;12.54;59.81;101916.13;5029597;28;20057;-65
2021/03/04 02:57:11;;;;;;;11.48;3.40;;;;;;;12.57;59.86;101921.53;5028833;28;20034;-65
2021/03/04 02:59:41;;;;;;;9.20;3.38;;;;;;;12.56;59.70;101920.63;5029341;28;20041;-65
2021/03/04 03:02:09;;;;;;;13.00;2.80;;;;;;;12.48;59.88;101926.56;5029020;28;20034;-65
2021/03/04 03:04:39;;;;;;;13.88;3.17;;;;;;;12.43;60.22;101917.63;5029596;28;20030;-65
2021/03/04 03:07:08;;;;;;;9.27;2.75;;;;;;;12.41;60.20;101914.03;5029024;28;20053;-65
2021/03/04 03:09:37;;;;;;;12.18;4.22;;;;;;;12.41;60.41;101917.56;5014262;28;20533;-65
2021/03/04 03:12:06;;;;;;;10.07;3.47;;;;;;;12.43;60.45;101925.56;5029104;28;20061;-66
2021/03/04 03:14:33;;;;;;;11.32;4.10;;;;;;;12.42;60.41;101923.75;5031888;28;20283;-67
2021/03/04 03:17:02;;;;;;;10.60;3.45;;;;;;;12.46;60.10;101923.91;5033108;28;20120;-67
2021/03/04 03:19:31;;;;;;;10.07;3.38;;;;;;;12.46;60.16;101925.66;5033403;28;20081;-67
2021/03/04 03:21:58;;;;;;;13.77;3.75;;;;;;;12.48;60.69;101921.28;5033356;28;20109;-67
2021/03/04 03:24:26;;;;;;;10.48;3.00;;;;;;;12.50;61.04;101917.81;5033211;28;20128;-67
2021/03/04 03:26:54;;;;;;;7.05;2.70;;;;;;;12.47;61.04;101936.25;5033300;28;20045;-65
2021/03/04 03:29:21;;;;;;;8.60;2.83;;;;;;;12.45;61.33;101931.81;5032934;28;20129;-67
2021/03/04 03:31:51;;;;;;;11.02;4.63;;;;;;;12.49;61.54;101933.66;5032710;28;20132;-67
2021/03/04 03:34:19;;;;;;;16.17;7.95;;;;;;;12.58;60.89;101940.13;5032647;28;20112;-67
2021/03/04 03:36:48;;;;;;;8.93;4.72;;;;;;;12.55;60.66;101937.38;5033062;28;20481;-67
2021/03/04 03:39:15;;;;;;;8.13;3.90;;;;;;;12.51;61.21;101931.97;5032847;28;21398;-67
2021/03/04 03:41:44;;;;;;;7.75;3.33;;;;;;;12.51;61.42;101930.22;5032927;28;20080;-67
2021/03/04 03:44:13;;;;;;;10.00;4.20;;;;;;;12.48;61.37;101930.13;5031891;28;20037;-67
2021/03/04 03:46:41;;;;;;;13.07;4.78;;;;;;;12.46;61.25;101926.56;5033397;28;20033;-67
2021/03/04 03:49:11;;;;;;;8.82;4.43;;;;;;;12.53;61.20;101924.97;5031802;28;20045;-67
2021/03/04 03:51:43;;;;;;;15.05;5.28;;;;;;;12.55;60.95;101933.81;5033076;28;20525;-67
2021/03/04 03:54:11;;;;;;;17.83;5.63;;;;;;;12.46;61.00;101934.50;5031863;28;20042;-67
2021/03/04 03:56:38;;;;;;;11.68;4.40;;;;;;;12.43;61.13;101941.44;5032759;28;20040;-67
2021/03/04 03:59:08;;;;;;;12.05;3.80;;;;;;;12.49;60.93;101920.41;5032732;28;20120;-67
2021/03/04 04:01:36;;;;;;;13.30;4.97;;;;;;;12.44;60.55;101925.59;5033269;28;20037;-67
2021/03/04 04:04:04;;;;;;;13.23;4.35;;;;;;;12.38;60.76;101917.50;5031969;28;20048;-67
2021/03/04 04:06:32;;;;;;;14.20;5.60;;;;;;;12.32;60.34;101917.34;5032899;28;20076;-67
2021/03/04 04:09:01;;;;;;;11.07;4.30;;;;;;;12.29;60.46;101920.78;5032250;28;20037;-67
2021/03/04 04:11:30;;;;;;;14.80;4.07;;;;;;;12.25;60.27;101928.63;5032772;28;20037;-66
2021/03/04 04:13:57;;;;;;;9.60;3.38;;;;;;;12.21;60.10;101921.41;5031620;28;20037;-67
2021/03/04 04:16:27;;;;;;;11.20;3.65;;;;;;;12.23;59.95;101925.03;5032590;28;20403;-67
2021/03/04 04:18:56;;;;;;;9.73;3.67;;;;;;;12.23;59.43;101928.56;5032229;28;20505;-67
2021/03/04 04:21:24;;;;;;;12.93;4.72;;;;;;;12.24;59.53;101924.16;5032480;28;20087;-67
2021/03/04 04:23:51;;;;;;;10.90;3.58;;;;;;;12.30;59.77;101927.88;5032593;28;20041;-67
2021/03/04 04:26:20;;;;;;;9.70;3.65;;;;;;;12.38;60.01;101930.75;5030447;28;20067;-67
2021/03/04 04:28:47;;;;;;;10.20;3.53;;;;;;;12.31;60.25;101931.44;5031824;28;20402;-67
2021/03/04 04:31:15;;;;;;;9.23;3.67;;;;;;;12.22;60.36;101939.09;5031977;28;20125;-67
2021/03/04 04:33:42;;;;;;;13.38;4.50;;;;;;;12.24;60.61;101930.38;5031787;28;20065;-67
2021/03/04 04:36:09;;;;;;;12.05;3.67;;;;;;;12.26;61.00;101927.78;5030734;28;20087;-67
2021/03/04 04:38:36;;;;;;;12.20;3.55;;;;;;;12.26;60.68;101935.72;5032306;28;20030;-67
2021/03/04 04:41:04;;;;;;;18.80;3.67;;;;;;;12.27;60.45;101927.78;5031823;28;20496;-67
2021/03/04 04:43:32;;;;;;;8.55;2.80;;;;;;;12.24;60.77;101925.06;5031655;28;20449;-67
2021/03/04 04:45:59;;;;;;;7.57;2.70;;;;;;;12.24;60.01;101942.69;5031496;28;20375;-67
2021/03/04 04:48:26;;;;;;;12.23;3.05;;;;;;;12.25;60.27;101940.09;5031822;28;20061;-67
2021/03/04 04:50:53;;;;;;;14.23;6.35;;;;;;;12.29;60.19;101939.31;5032039;28;20033;-67
2021/03/04 04:53:20;;;;;;;12.95;5.00;;;;;;;12.27;60.37;101933.06;5030659;28;20499;-67
2021/03/04 04:55:46;;;;;;;10.60;3.95;;;;;;;12.28;60.20;101941.91;5031782;28;20029;-66
2021/03/04 04:58:13;;;;;;;11.43;4.18;;;;;;;12.28;60.27;101941.91;5031521;28;20064;-67
2021/03/04 05:00:42;;;;;;;10.48;4.45;;;;;;;12.36;60.28;101933.34;5031806;28;20045;-66
2021/03/04 05:03:09;;;;;;;9.73;5.65;;;;;;;12.41;60.04;101945.78;5031079;28;20051;-65
2021/03/04 05:05:36;;;;;;;14.65;3.33;;;;;;;12.48;59.90;101953.97;5031653;28;20567;-67
2021/03/04 05:08:03;;;;;;;11.10;3.42;;;;;;;12.47;60.19;101952.16;5030775;28;20153;-67
2021/03/04 05:10:31;;;;;;;13.93;7.57;;;;;;;12.47;60.41;101946.84;5031884;28;20043;-67
2021/03/04 05:12:58;;;;;;;9.05;3.70;;;;;;;12.53;60.15;101947.06;5030871;28;20038;-67
2021/03/04 05:15:25;;;;;;;11.98;3.10;;;;;;;12.58;59.92;101942.75;5031448;28;20590;-67
2021/03/04 05:17:53;;;;;;;15.02;6.55;;;;;;;12.68;59.64;101938.59;5030983;28;20050;-67
2021/03/04 05:20:21;;;;;;;14.50;5.03;;;;;;;12.88;59.63;101933.78;5014816;28;20112;-67
2021/03/04 05:22:48;;;;;;;12.25;3.83;;;;;;;13.07;58.98;101930.72;5014008;28;20041;-67
2021/03/04 05:25:15;;;;;;;15.00;4.15;;;;;;;13.28;58.55;101933.03;5030829;28;22231;-67
2021/03/04 05:27:43;;;;;;;8.18;3.00;;;;;;;13.36;57.79;101940.31;5031408;28;20041;-64
2021/03/04 05:30:11;;;;;;;9.07;2.60;;;;;;;13.35;57.50;101942.94;5030536;28;20578;-65
2021/03/04 05:32:38;;;;;;;12.05;3.50;;;;;;;13.39;56.82;101936.84;5030970;28;20571;-65
2021/03/04 05:35:08;;;;;;;6.95;2.63;;;;;;;13.41;56.61;101928.06;5030948;28;20121;-65
2021/03/04 05:37:35;;;;;;;13.75;3.05;;;;;;;13.51;56.35;101937.13;5030218;28;20041;-66
2021/03/04 05:40:03;;;;;;;10.35;3.25;;;;;;;13.67;56.53;101935.69;5030053;28;20065;-67
2021/03/04 05:42:32;;;;;;;13.73;3.33;;;;;;;13.82;56.62;101947.53;5030691;28;20049;-68
2021/03/04 05:44:59;;;;;;;8.50;3.28;;;;;;;13.93;56.45;101946.00;5030704;28;20026;-68
2021/03/04 05:47:28;;;;;;;9.80;4.30;;;;;;;14.05;56.58;101941.78;5030690;28;20084;-67
2021/03/04 05:50:01;;;;;;;11.93;2.95;;;;;;;14.09;56.76;101946.31;5030353;28;20029;-68
2021/03/04 05:52:34;;;;;;;11.15;2.70;;;;;;;14.02;56.61;101945.31;5029804;28;20132;-67
2021/03/04 05:55:03;;;;;;;9.10;2.63;;;;;;;14.15;56.31;101951.75;5030199;28;20072;-65
2021/03/04 05:57:31;;;;;;;9.02;2.53;;;;;;;14.30;56.19;101947.66;5030362;28;20516;-65
2021/03/04 05:59:59;;;;;;;9.02;3.10;;;;;;;14.50;56.02;101945.41;5030121;28;20117;-66
2021/03/04 06:02:26;;;;;;;7.10;2.05;;;;;;;14.70;55.50;101953.75;5030390;28;20451;-65
2021/03/04 06:04:53;;;;;;;9.27;2.67;;;;;;;14.87;55.00;101949.59;5027087;28;20132;-65
2021/03/04 06:07:20;;;;;;;11.57;2.25;;;;;;;14.98;54.61;101957.75;5028995;28;20040;-65
2021/03/04 06:09:49;;;;;;;8.63;2.40;;;;;;;15.05;54.24;101952.56;5030468;28;20120;-64
2021/03/04 06:12:16;;;;;;;8.48;2.80;;;;;;;14.84;54.38;101946.00;5029772;28;20694;-65
2021/03/04 06:14:44;;;;;;;9.82;2.92;;;;;;;14.78;54.14;101957.41;5030040;28;20099;-65
2021/03/04 06:17:15;;;;;;;16.15;6.63;;;;;;;15.00;53.41;101954.25;5029610;28;20379;-65
2021/03/04 06:19:51;;;;;;;15.02;6.82;;;;;;;15.27;52.85;101964.47;5029705;28;20072;-65
2021/03/04 06:22:24;;;;;;;11.98;3.20;;;;;;;15.61;52.67;101970.31;5029828;28;20049;-65
2021/03/04 06:24:53;;;;;;;15.55;3.50;;;;;;;15.67;52.49;101979.28;5030105;28;20029;-65
2021/03/04 06:27:29;;;;;;;8.45;3.10;;;;;;;15.83;51.67;101978.63;5028983;28;20041;-65
2021/03/04 06:29:57;;;;;;;13.02;4.13;;;;;;;15.85;51.60;101971.56;5029699;28;20034;-66
2021/03/04 06:32:25;;;;;;;10.60;4.00;;;;;;;15.67;51.93;101981.97;5029221;28;20037;-65
2021/03/04 06:35:07;;;;;;;5.93;2.40;;;;;;;15.60;52.05;101985.41;5028030;28;20057;-65
2021/03/04 06:37:37;;;;;;;9.65;2.88;;;;;;;15.74;52.56;101980.28;5028534;28;20041;-64
2021/03/04 06:40:17;;;;;;;47.13;15.30;;;;;;;16.25;52.25;101966.72;5028701;28;20041;-65
2021/03/04 06:42:45;;;;;;;9.02;3.47;;;;;;;16.28;51.60;101972.06;5029534;28;20040;-65
2021/03/04 06:45:23;;;;;;;10.88;4.05;;;;;;;16.14;52.04;101979.03;5029439;28;20040;-65
2021/03/04 06:47:52;;;;;;;11.45;4.18;;;;;;;16.08;52.48;101982.50;5025424;28;20107;-65
2021/03/04 06:50:24;;;;;;;9.90;3.80;;;;;;;16.05;51.87;101978.91;5011483;28;20041;-65
2021/03/04 06:52:51;;;;;;;11.57;3.95;;;;;;;16.04;51.89;101983.34;5029674;28;20045;-65
2021/03/04 06:55:20;;;;;;;9.20;3.30;;;;;;;16.13;51.58;101991.47;5029566;28;20041;-64
2021/03/04 06:58:01;;;;;;;9.45;3.55;;;;;;;16.05;51.59;101986.91;5029921;28;20431;-65
2021/03/04 07:00:28;;;;;;;9.70;3.67;;;;;;;15.86;51.27;101983.09;5026485;28;20041;-65
2021/03/04 07:02:56;;;;;;;15.07;3.92;;;;;;;15.78;51.64;101987.41;5029202;28;20069;-67
2021/03/04 07:05:24;;;;;;;10.88;4.75;;;;;;;15.72;52.04;101985.56;5029433;28;20034;-65
2021/03/04 07:07:52;;;;;;;12.63;4.95;;;;;;;15.92;51.78;101999.16;5029684;28;20120;-65
2021/03/04 07:10:22;;;;;;;12.98;5.70;;;;;;;16.18;51.66;101995.06;5028562;28;20121;-65
2021/03/04 07:12:50;;;;;;;8.68;4.15;;;;;;;16.32;51.45;102001.47;5029498;28;20625;-65
2021/03/04 07:15:19;;;;;;;7.68;3.45;;;;;;;16.44;51.29;101999.81;5028279;28;20041;-65
2021/03/04 07:17:48;;;;;;;9.88;4.25;;;;;;;16.67;51.26;102009.88;5029439;28;20042;-65
2021/03/04 07:20:16;;;;;;;9.95;3.78;;;;;;;16.69;51.02;102009.91;5028537;28;20037;-65
2021/03/04 07:22:46;;;;;;;10.20;3.20;;;;;;;16.76;50.50;101997.53;5029632;28;20057;-65
2021/03/04 07:25:14;;;;;;;9.63;4.45;;;;;;;16.96;50.57;102003.94;5028440;28;20456;-66
2021/03/04 07:27:43;;;;;;;8.85;3.95;;;;;;;17.06;50.28;102003.16;5029662;28;20499;-66
2021/03/04 07:30:13;;;;;;;15.70;4.88;;;;;;;17.44;50.29;101999.03;5027857;28;20037;-66
2021/03/04 07:32:42;;;;;;;14.30;6.25;;;;;;;17.34;49.78;101999.81;5024281;28;20587;-66
2021/03/04 07:35:13;;;;;;;11.70;5.68;;;;;;;17.11;50.01;102009.44;5029068;28;20033;-66
2021/03/04 07:37:40;;;;;;;10.05;2.95;;;;;;;17.09;49.43;102004.06;5012347;28;20735;-66
2021/03/04 07:40:12;;;;;;;9.30;4.07;;;;;;;17.20;49.90;101989.94;5028048;28;20433;-66
2021/03/04 07:42:39;;;;;;;8.65;3.33;;;;;;;17.12;49.58;102000.56;5029186;28;20052;-66
2021/03/04 07:45:12;;;;;;;9.45;4.45;;;;;;;17.39;49.16;101998.06;5026620;28;20038;-66
2021/03/04 07:47:39;;;;;;;9.02;3.83;;;;;;;17.50;49.22;102001.75;5029432;28;20033;-65
2021/03/04 07:50:16;;;;;;;8.52;3.53;;;;;;;17.52;49.38;101999.94;5028725;28;20080;-65
2021/03/04 07:52:43;;;;;;;12.07;5.07;;;;;;;17.52;49.35;101994.63;5029309;28;20128;-66
2021/03/04 07:55:12;;;;;;;11.18;4.82;;;;;;;17.48;49.46;101991.91;5027871;28;20052;-66
2021/03/04 07:57:47;;;;;;;9.38;4.85;;;;;;;17.47;49.41;101985.69;5029026;28;20037;-65
2021/03/04 08:00:17;;;;;;;8.52;2.83;;;;;;;17.42;49.51;101991.88;5013030;28;20042;-66
2021/03/04 08:02:45;;;;;;;14.88;5.20;;;;;;;17.20;49.37;101990.81;5032474;28;20038;-65
2021/03/04 08:05:13;;;;;;;8.73;2.78;;;;;;;17.15;49.96;101992.56;5032502;28;20046;-66
2021/03/04 08:07:42;;;;;;;11.35;3.33;;;;;;;17.26;50.41;102001.56;5032692;28;20057;-65
2021/03/04 08:10:11;;;;;;;15.85;7.32;;;;;;;17.38;50.06;101992.75;5031697;28;20119;-66
2021/03/04 08:12:49;;;;;;;13.85;5.68;;;;;;;17.63;49.81;101996.50;5032090;28;20079;-65
2021/03/04 08:15:18;;;;;;;13.02;3.78;;;;;;;17.54;49.98;101976.84;5031166;28;20049;-65
2021/03/04 08:17:46;;;;;;;8.18;3.75;;;;;;;17.61;49.87;101979.56;5032528;28;20181;-66
2021/03/04 08:20:16;;;;;;;11.40;3.53;;;;;;;18.16;49.74;101964.72;5031587;28;20506;-66
2021/03/04 08:22:47;;;;;;;15.25;3.72;;;;;;;18.52;49.44;101966.59;5014990;28;20099;-66
2021/03/04 08:25:19;;;;;;;15.93;6.57;;;;;;;18.44;49.13;101963.03;5031849;28;20069;-66
2021/03/04 08:27:48;;;;;;;13.10;6.45;;;;;;;18.41;48.19;101966.59;5032193;28;20029;-66
2021/03/04 08:30:25;;;;;;;17.40;7.95;;;;;;;18.23;47.71;101961.19;5031870;28;20030;-65
2021/03/04 08:32:55;;;;;;;36.42;18.23;;;;;;;18.20;48.31;101956.72;5032302;28;20037;-65
2021/03/04 08:35:23;;;;;;;15.95;6.90;;;;;;;18.20;48.41;101959.38;5031480;28;20112;-65
2021/03/04 08:37:56;;;;;;;9.38;3.92;;;;;;;18.19;47.98;101954.94;5032212;28;20112;-65
2021/03/04 08:40:24;;;;;;;9.93;4.20;;;;;;;18.23;48.01;101948.72;5031303;28;20048;-65
2021/03/04 08:42:52;;;;;;;12.98;3.95;;;;;;;18.38;48.07;101941.63;5031325;28;20041;-65
2021/03/04 08:45:33;;;;;;;9.27;3.38;;;;;;;18.62;47.19;101955.09;5030553;28;20116;-66
2021/03/04 08:48:05;;;;;;;8.02;2.88;;;;;;;18.70;46.97;101950.66;5030833;28;20034;-65
2021/03/04 08:50:35;;;;;;;11.20;3.92;;;;;;;18.99;46.59;101956.91;5031620;28;20038;-66
2021/03/04 08:53:02;;;;;;;9.57;3.90;;;;;;;19.40;47.00;101935.44;5030878;28;20061;-66
2021/03/04 08:55:29;;;;;;;13.02;4.72;;;;;;;19.34;46.67;101938.13;5031689;28;20041;-66
2021/03/04 08:58:06;;;;;;;10.15;4.18;;;;;;;19.63;46.05;101939.88;5031535;28;20065;-67
2021/03/04 09:00:33;;;;;;;10.27;3.35;;;;;;;19.76;45.80;101939.84;5031266;28;20502;-68
2021/03/04 09:03:11;;;;;;;9.73;3.80;;;;;;;19.99;44.89;101942.44;5029241;28;20564;-68
2021/03/04 09:05:39;;;;;;;9.43;3.80;;;;;;;20.16;45.49;101940.56;5031670;28;20172;-69
2021/03/04 09:08:10;;;;;;;15.55;6.40;;;;;;;20.34;45.00;101944.13;5030994;28;20068;-68
2021/03/04 09:10:55;;;;;;;10.52;4.70;;;;;;;20.42;44.14;101937.78;5030829;28;20506;-68
2021/03/04 09:13:24;;;;;;;12.98;4.88;;;;;;;20.36;44.13;101936.91;5030251;28;20041;-68
2021/03/04 09:15:54;;;;;;;12.10;3.53;;;;;;;20.45;43.53;101934.19;5030651;28;20145;-68
2021/03/04 09:18:24;;;;;;;9.57;2.90;;;;;;;20.58;43.31;101938.59;5011457;28;20485;-69
2021/03/04 09:20:53;;;;;;;10.15;3.28;;;;;;;20.55;43.12;101944.84;5027364;28;20128;-68
2021/03/04 09:23:20;;;;;;;8.23;3.50;;;;;;;20.48;42.89;101935.06;5030892;28;20048;-68
2021/03/04 09:25:47;;;;;;;11.32;3.72;;;;;;;20.63;42.89;101943.00;5031645;28;20094;-68
2021/03/04 09:28:18;;;;;;;6.03;2.70;;;;;;;20.81;42.77;101935.72;5030386;28;20116;-68
2021/03/04 09:30:47;;;;;;;9.63;2.90;;;;;;;21.03;42.92;101937.34;5030806;28;20041;-68
2021/03/04 09:33:19;;;;;;;8.05;3.22;;;;;;;21.14;42.67;101940.81;5030066;28;20045;-68
2021/03/04 09:35:58;;;;;;;12.07;4.90;;;;;;;21.08;41.63;101939.06;5031351;28;20125;-68
2021/03/04 09:38:27;;;;;;;9.52;3.72;;;;;;;21.15;42.46;101939.91;5029741;28;20121;-68
2021/03/04 09:40:55;;;;;;;9.23;3.75;;;;;;;21.31;42.05;101933.53;5030603;28;20056;-69
2021/03/04 09:43:23;;;;;;;8.20;3.30;;;;;;;21.56;41.46;101938.66;5030512;28;20494;-68
2021/03/04 09:45:51;;;;;;;8.40;2.80;;;;;;;21.58;41.35;101920.72;5026815;28;20038;-69
2021/03/04 09:48:30;;;;;;;14.23;5.53;;;;;;;21.59;41.06;101928.78;5027095;28;20149;-68
2021/03/04 09:50:59;;;;;;;12.38;4.65;;;;;;;21.69;41.29;101929.53;5023386;28;20034;-68
2021/03/04 09:53:27;;;;;;;13.25;5.90;;;;;;;21.71;40.54;101936.69;5016724;28;20616;-69
2021/03/04 09:55:54;;;;;;;10.43;4.15;;;;;;;21.68;40.10;101934.03;5026297;28;20088;-69
2021/03/04 09:58:22;;;;;;;13.15;4.88;;;;;;;21.80;40.12;101932.97;5029095;28;20117;-70
2021/03/04 10:00:56;;;;;;;8.85;4.40;;;;;;;21.85;39.66;101928.47;5029381;28;20048;-68
2021/03/04 10:03:32;;;;;;;9.80;4.63;;;;;;;21.81;40.06;101921.31;5029829;28;20083;-69
2021/03/04 10:06:01;;;;;;;9.00;3.38;;;;;;;21.83;39.97;101906.06;5029258;28;20569;-69
2021/03/04 10:08:38;;;;;;;13.38;4.05;;;;;;;21.64;40.13;101915.25;5029673;28;20033;-69
2021/03/04 10:11:05;;;;;;;14.35;5.60;;;;;;;21.27;40.53;101928.19;5029894;28;20087;-69
2021/03/04 10:13:33;;;;;;;8.98;4.22;;;;;;;21.32;40.10;101916.50;5029990;28;20108;-69
2021/03/04 10:16:09;;;;;;;9.38;3.50;;;;;;;21.58;39.99;101905.47;5011799;28;20048;-69
2021/03/04 10:18:36;;;;;;;7.88;3.08;;;;;;;21.63;40.07;101902.72;4997860;28;20379;-69
2021/03/04 10:21:05;;;;;;;7.45;3.58;;;;;;;21.65;39.84;101909.88;5029788;28;20041;-69
2021/03/04 10:23:32;;;;;;;6.70;2.33;;;;;;;21.67;40.19;101899.09;5030462;28;20453;-69
2021/03/04 10:25:59;;;;;;;11.82;3.80;;;;;;;21.31;40.51;101909.34;5029746;28;20140;-69
2021/03/04 10:28:26;;;;;;;10.30;3.42;;;;;;;21.12;40.58;101913.09;5030438;28;20174;-69
2021/03/04 10:30:54;;;;;;;7.57;3.33;;;;;;;21.06;40.74;101902.41;5030224;28;20041;-69
2021/03/04 10:33:21;;;;;;;7.72;3.25;;;;;;;20.99;41.22;101896.22;5029792;28;20053;-67
2021/03/04 10:35:48;;;;;;;9.85;3.17;;;;;;;21.01;41.37;101896.16;5030177;28;20602;-69
2021/03/04 10:38:17;;;;;;;10.20;3.35;;;;;;;21.15;41.94;101894.25;5029210;28;20127;-69
2021/03/04 10:40:44;;;;;;;12.27;3.50;;;;;;;21.20;42.37;101887.06;5030290;28;20124;-69
2021/03/04 10:43:11;;;;;;;8.30;3.45;;;;;;;21.31;42.65;101886.97;5029167;28;20038;-69
2021/03/04 10:45:39;;;;;;;8.07;3.53;;;;;;;21.24;41.59;101893.31;5030035;28;20041;-69
2021/03/04 10:48:07;;;;;;;10.18;3.85;;;;;;;21.29;41.33;101886.09;5029680;28;20069;-68
2021/03/04 10:50:34;;;;;;;12.25;4.15;;;;;;;21.20;40.71;101880.84;5030077;28;20529;-69
2021/03/04 10:53:01;;;;;;;9.07;3.88;;;;;;;21.23;40.72;101889.72;5011528;28;20127;-69
2021/03/04 10:55:30;;;;;;;6.95;3.47;;;;;;;21.34;41.00;101889.59;5029624;28;20406;-68
2021/03/04 10:57:57;;;;;;;15.82;3.42;;;;;;;21.24;40.34;101875.41;5029673;28;20053;-69
2021/03/04 11:00:25;;;;;;;10.50;2.97;;;;;;;21.10;40.11;101879.97;5029886;28;20041;-69
2021/03/04 11:02:52;;;;;;;12.57;5.57;;;;;;;21.15;40.09;101878.13;5029929;28;20056;-69
2021/03/04 11:05:19;;;;;;;11.43;4.38;;;;;;;21.08;40.21;101873.72;5029200;28;20072;-68
2021/03/04 11:07:46;;;;;;;8.32;2.85;;;;;;;21.11;39.77;101865.66;5029505;28;20046;-69
2021/03/04 11:10:13;;;;;;;10.90;3.50;;;;;;;21.08;39.23;101873.72;5029311;28;20045;-69
2021/03/04 11:12:42;;;;;;;7.72;3.15;;;;;;;21.09;39.39;101868.34;5029607;28;20026;-68
2021/03/04 11:15:10;;;;;;;10.65;3.60;;;;;;;21.11;39.69;101862.97;5028935;28;20125;-69
2021/03/04 11:17:37;;;;;;;16.58;4.78;;;;;;;21.06;39.95;101864.81;5029403;28;20450;-69
2021/03/04 11:20:06;;;;;;;9.07;3.42;;;;;;;21.00;40.10;101860.38;5029244;28;20088;-69
2021/03/04 11:22:33;;;;;;;13.23;3.40;;;;;;;21.02;39.96;101863.03;5029602;28;20033;-68
2021/03/04 11:25:00;;;;;;;12.25;4.47;;;;;;;21.07;40.03;101856.72;5029318;28;20117;-68
2021/03/04 11:27:27;;;;;;;14.43;6.32;;;;;;;21.08;39.88;101855.81;5029463;28;20037;-69